createdAt,value
2023-03-03T00:01:47.415Z,99.90
2023-03-03T00:05:48.118Z,99.90
2023-03-03T00:09:49.412Z,99.90
2023-03-03T00:13:56.361Z,99.90
2023-03-03T00:17:58.465Z,99.90
2023-03-03T00:22:01.734Z,99.90
2023-03-03T00:26:02.688Z,99.90
2023-03-03T00:30:20.365Z,99.90
2023-03-03T00:34:30.813Z,99.90
2023-03-03T00:38:31.934Z,99.90
2023-03-03T00:42:33.886Z,99.90
2023-03-03T00:46:40.977Z,99.90
2023-03-03T00:50:47.377Z,99.90
2023-03-03T00:54:50.575Z,99.90
2023-03-03T00:58:51.090Z,99.90
2023-03-03T01:02:56.824Z,99.90
2023-03-03T01:06:57.431Z,99.90
2023-03-03T01:11:01.958Z,99.90
2023-03-03T01:15:04.121Z,99.90
2023-03-03T01:19:09.820Z,99.90
2023-03-03T01:23:11.044Z,99.90
2023-03-03T01:27:11.768Z,99.90
2023-03-03T01:31:15.379Z,99.90
2023-03-03T01:35:18.940Z,99.90
2023-03-03T01:39:19.302Z,99.90
2023-03-03T01:43:19.966Z,99.90
2023-03-03T01:47:25.393Z,99.90
2023-03-03T01:51:34.178Z,99.90
2023-03-03T01:55:42.336Z,99.90
2023-03-03T01:59:50.507Z,99.90
2023-03-03T02:03:51.647Z,99.90
2023-03-03T02:07:56.099Z,99.90
2023-03-03T02:12:03.049Z,99.90
2023-03-03T02:16:03.702Z,99.90
2023-03-03T02:20:14.798Z,99.90
2023-03-03T02:24:29.208Z,99.90
2023-03-03T02:28:37.161Z,99.90
2023-03-03T02:32:40.418Z,99.90
2023-03-03T02:36:42.693Z,99.90
2023-03-03T02:40:55.372Z,99.90
2023-03-03T02:44:58.777Z,99.90
2023-03-03T02:48:59.376Z,99.90
2023-03-03T02:52:59.814Z,99.90
2023-03-03T02:57:00.702Z,99.90
2023-03-03T03:01:04.069Z,99.90
2023-03-03T03:05:05.190Z,99.90
2023-03-03T03:09:06.847Z,99.90
2023-03-03T03:13:07.663Z,99.90
2023-03-03T03:17:11.860Z,99.90
2023-03-03T03:21:14.649Z,99.90
2023-03-03T03:25:16.777Z,99.90
2023-03-03T03:29:17.940Z,99.90
2023-03-03T03:33:21.812Z,99.90
2023-03-03T03:37:23.337Z,99.90
2023-03-03T03:41:24.154Z,99.90
2023-03-03T03:45:28.063Z,99.90
2023-03-03T03:49:31.528Z,99.90
2023-03-03T03:53:32.628Z,99.90
2023-03-03T03:57:33.687Z,99.90
2023-03-03T04:01:34.280Z,99.90
2023-03-03T04:05:37.786Z,99.90
2023-03-03T04:09:39.576Z,99.90
2023-03-03T04:13:40.732Z,99.90
2023-03-03T04:17:44.266Z,99.90
2023-03-03T04:21:48.335Z,99.90
2023-03-03T04:25:50.450Z,99.90
2023-03-03T04:29:52.508Z,99.90
2023-03-03T04:33:57.280Z,99.90
2023-03-03T04:38:00.913Z,99.90
2023-03-03T04:42:01.536Z,99.90
2023-03-03T04:46:03.361Z,99.90
2023-03-03T04:50:05.036Z,99.90
2023-03-03T04:54:09.893Z,99.90
2023-03-03T04:58:12.759Z,99.90
2023-03-03T05:02:14.835Z,99.90
2023-03-03T05:06:16.914Z,99.90
2023-03-03T05:10:21.075Z,99.90
2023-03-03T05:14:21.706Z,99.90
2023-03-03T05:18:23.264Z,99.90
2023-03-03T05:22:23.774Z,99.90
2023-03-03T05:26:27.369Z,99.90
2023-03-03T05:30:28.609Z,99.90
2023-03-03T05:34:29.341Z,99.90
2023-03-03T05:38:30.079Z,99.90
2023-03-03T05:42:33.607Z,99.90
2023-03-03T05:46:35.599Z,99.90
2023-03-03T05:50:36.643Z,99.90
2023-03-03T05:54:37.676Z,99.90
2023-03-03T05:58:42.481Z,99.90
2023-03-03T06:02:46.290Z,99.90
2023-03-03T06:06:46.890Z,99.90
2023-03-03T06:10:47.556Z,99.90
2023-03-03T06:14:51.905Z,99.90
2023-03-03T06:18:52.713Z,99.90
2023-03-03T06:22:53.266Z,99.90
2023-03-03T06:26:56.340Z,99.90
2023-03-03T06:31:00.844Z,99.90
2023-03-03T06:35:01.524Z,99.90
2023-03-03T06:39:02.384Z,99.90
2023-03-03T06:43:03.453Z,99.90
2023-03-03T06:47:06.825Z,99.90
2023-03-03T06:51:24.700Z,99.90
2023-03-03T06:55:27.381Z,99.90
2023-03-03T06:59:30.838Z,99.90
2023-03-03T07:03:38.301Z,99.90
2023-03-03T07:07:40.341Z,99.90
2023-03-03T07:11:42.049Z,99.90
2023-03-03T07:15:42.647Z,99.90
2023-03-03T07:19:48.292Z,99.90
2023-03-03T07:23:51.594Z,99.90
2023-03-03T07:27:51.974Z,99.90
2023-03-03T07:31:53.469Z,99.90
2023-03-03T07:35:59.858Z,99.90
2023-03-03T07:40:02.132Z,99.90
2023-03-03T07:44:10.360Z,99.90
2023-03-03T07:48:28.521Z,99.90
2023-03-03T07:52:56.988Z,99.90
2023-03-03T07:57:00.949Z,99.90
2023-03-03T08:01:42.878Z,99.90
2023-03-03T08:05:47.184Z,99.90
2023-03-03T08:09:54.556Z,99.90
2023-03-03T08:13:58.726Z,99.90
2023-03-03T08:18:00.148Z,99.90
2023-03-03T08:22:10.270Z,99.90
2023-03-03T08:26:15.480Z,99.90
2023-03-03T08:30:17.265Z,99.90
2023-03-03T08:34:17.986Z,99.90
2023-03-03T08:38:22.366Z,99.90
2023-03-03T08:42:25.386Z,99.90
2023-03-03T08:46:27.025Z,99.90
2023-03-03T08:50:28.016Z,99.90
2023-03-03T08:54:28.596Z,99.90
2023-03-03T08:58:35.692Z,99.90
2023-03-03T09:02:38.455Z,99.90
2023-03-03T09:06:39.511Z,99.90
2023-03-03T09:10:44.057Z,99.90
2023-03-03T09:14:47.878Z,99.90
2023-03-03T09:18:48.349Z,99.90
2023-03-03T09:22:49.032Z,99.90
2023-03-03T09:26:53.233Z,99.90
2023-03-03T09:31:00.219Z,99.90
2023-03-03T09:35:01.039Z,99.90
2023-03-03T09:39:03.349Z,99.90
2023-03-03T09:43:12.619Z,99.90
2023-03-03T09:47:42.728Z,99.90
2023-03-03T09:52:03.320Z,99.90
2023-03-03T09:56:20.936Z,99.90
2023-03-03T10:00:44.885Z,99.90
2023-03-03T10:05:19.255Z,99.90
2023-03-03T10:10:01.962Z,99.90
2023-03-03T10:14:28.870Z,99.90
2023-03-03T10:18:42.659Z,99.90
2023-03-03T10:22:56.912Z,99.90
2023-03-03T10:27:23.326Z,99.90
2023-03-03T10:31:38.572Z,99.90
2023-03-03T10:36:07.381Z,99.30
2023-03-03T10:40:28.784Z,98.10
2023-03-03T10:44:58.126Z,97.10
2023-03-03T10:49:25.227Z,95.80
2023-03-03T10:53:36.707Z,95.90
2023-03-03T10:57:52.500Z,94.40
2023-03-03T11:02:01.174Z,91.90
2023-03-03T11:06:05.744Z,92.00
2023-03-03T11:10:30.590Z,90.60
2023-03-03T11:14:47.779Z,90.70
2023-03-03T11:19:15.828Z,87.90
2023-03-03T11:23:47.484Z,90.20
2023-03-03T11:28:17.483Z,86.40
2023-03-03T11:32:37.004Z,84.00
2023-03-03T11:36:45.430Z,80.80
2023-03-03T11:40:54.229Z,80.00
2023-03-03T11:45:00.138Z,79.50
2023-03-03T11:49:13.024Z,77.50
2023-03-03T11:53:57.292Z,77.70
2023-03-03T11:58:10.323Z,77.30
2023-03-03T12:02:33.256Z,75.90
2023-03-03T12:07:09.766Z,73.20
2023-03-03T12:11:31.034Z,71.30
2023-03-03T12:15:44.939Z,71.00
2023-03-03T12:19:58.173Z,67.70
2023-03-03T12:24:34.186Z,64.40
2023-03-03T12:28:48.094Z,66.80
2023-03-03T12:33:09.305Z,65.40
2023-03-03T12:37:32.836Z,62.60
2023-03-03T12:41:46.717Z,59.80
2023-03-03T12:46:03.144Z,59.40
2023-03-03T12:50:39.668Z,59.00
2023-03-03T12:55:11.467Z,57.00
2023-03-03T12:59:28.205Z,56.80
2023-03-03T13:03:55.269Z,58.20
2023-03-03T13:08:21.193Z,57.90
2023-03-03T13:12:35.541Z,57.00
2023-03-03T13:16:47.492Z,56.60
2023-03-03T13:21:08.066Z,56.00
2023-03-03T13:25:27.945Z,56.40
2023-03-03T13:29:33.394Z,54.90
2023-03-03T13:33:40.467Z,55.80
2023-03-03T13:37:47.808Z,56.00
2023-03-03T13:41:59.714Z,55.00
2023-03-03T13:46:13.856Z,54.60
2023-03-03T13:50:27.887Z,55.20
2023-03-03T13:55:06.218Z,54.50
2023-03-03T13:59:24.405Z,53.90
2023-03-03T14:03:50.377Z,53.00
2023-03-03T14:08:01.066Z,54.40
2023-03-03T14:12:15.282Z,53.30
2023-03-03T14:16:33.332Z,54.20
2023-03-03T14:20:46.700Z,54.60
2023-03-03T14:25:17.404Z,53.90
2023-03-03T14:29:32.537Z,54.60
2023-03-03T14:33:35.282Z,54.40
2023-03-03T14:37:47.758Z,52.60
2023-03-03T14:41:52.804Z,53.80
2023-03-03T14:45:53.938Z,53.20
2023-03-03T14:50:03.763Z,52.10
2023-03-03T14:54:04.694Z,52.50
2023-03-03T14:58:27.962Z,52.90
2023-03-03T15:02:46.354Z,52.90
2023-03-03T15:06:50.395Z,53.50
2023-03-03T15:10:52.547Z,53.40
2023-03-03T15:15:05.846Z,52.50
2023-03-03T15:19:47.505Z,52.00
2023-03-03T15:24:05.046Z,51.40
2023-03-03T15:28:25.482Z,53.00
2023-03-03T15:32:37.077Z,54.50
2023-03-03T15:36:48.312Z,56.80
2023-03-03T15:40:57.682Z,57.80
2023-03-03T15:45:10.836Z,58.10
2023-03-03T15:49:38.448Z,58.20
2023-03-03T15:54:11.599Z,59.40
2023-03-03T15:58:48.122Z,59.60
2023-03-03T16:02:58.940Z,60.80
2023-03-03T16:07:12.280Z,62.00
2023-03-03T16:11:24.301Z,63.50
2023-03-03T16:15:44.717Z,64.30
2023-03-03T16:19:56.490Z,65.50
2023-03-03T16:24:10.228Z,66.70
2023-03-03T16:28:19.932Z,68.20
2023-03-03T16:32:36.543Z,69.50
2023-03-03T16:36:56.222Z,71.00
2023-03-03T16:41:03.792Z,72.80
2023-03-03T16:45:22.955Z,75.10
2023-03-03T16:49:35.712Z,78.10
2023-03-03T16:54:09.587Z,81.20
2023-03-03T16:58:33.165Z,83.70
2023-03-03T17:03:13.841Z,85.80
2023-03-03T17:07:33.448Z,87.40
2023-03-03T17:11:58.197Z,88.20
2023-03-03T17:16:16.317Z,87.60
2023-03-03T17:20:33.952Z,87.80
2023-03-03T17:24:48.497Z,88.40
2023-03-03T17:29:12.634Z,90.00
2023-03-03T17:33:49.930Z,91.00
2023-03-03T17:38:02.053Z,91.80
2023-03-03T17:42:19.140Z,93.00
2023-03-03T17:46:28.917Z,93.90
2023-03-03T17:51:14.269Z,94.00
2023-03-03T17:55:42.867Z,96.50
2023-03-03T18:00:06.577Z,96.50
2023-03-03T18:04:42.649Z,95.60
2023-03-03T18:09:13.799Z,96.20
2023-03-03T18:13:37.044Z,96.20
2023-03-03T18:18:06.186Z,94.90
2023-03-03T18:22:14.545Z,94.40
2023-03-03T18:26:41.888Z,95.50
2023-03-03T18:31:01.113Z,96.30
2023-03-03T18:35:28.098Z,96.50
2023-03-03T18:39:46.517Z,96.90
2023-03-03T18:44:04.691Z,98.00
2023-03-03T18:48:14.899Z,99.30
2023-03-03T18:52:24.936Z,99.90
2023-03-03T18:56:48.447Z,99.90
2023-03-03T19:00:55.985Z,99.90
2023-03-03T19:05:07.739Z,99.90
2023-03-03T19:09:10.527Z,99.90
2023-03-03T19:13:57.321Z,99.90
2023-03-03T19:18:03.383Z,99.90
2023-03-03T19:22:27.419Z,99.90
2023-03-03T19:27:07.406Z,99.90
2023-03-03T19:31:19.013Z,99.90
2023-03-03T19:35:36.205Z,99.90
2023-03-03T19:39:52.420Z,99.90
2023-03-03T19:44:15.852Z,99.90
2023-03-03T19:48:28.879Z,99.90
2023-03-03T19:52:43.076Z,99.90
2023-03-03T19:56:51.570Z,99.90
2023-03-03T20:01:01.789Z,99.90
2023-03-03T20:05:23.340Z,99.90
2023-03-03T20:09:39.114Z,99.90
2023-03-03T20:13:57.346Z,99.90
2023-03-03T20:18:46.837Z,99.90
2023-03-03T20:22:59.809Z,99.90
2023-03-03T20:27:09.717Z,99.90
2023-03-03T20:31:22.500Z,99.90
2023-03-03T20:35:40.193Z,99.90
2023-03-03T20:40:01.365Z,99.90
2023-03-03T20:44:20.469Z,99.90
2023-03-03T20:48:51.358Z,99.90
2023-03-03T20:53:09.519Z,99.90
2023-03-03T20:57:21.431Z,99.90
2023-03-03T21:01:39.320Z,99.90
2023-03-03T21:06:01.239Z,99.90
2023-03-03T21:10:16.700Z,99.90
2023-03-03T21:14:24.187Z,99.90
2023-03-03T21:18:29.878Z,99.90
2023-03-03T21:22:30.519Z,99.90
2023-03-03T21:26:57.301Z,99.90
2023-03-03T21:31:17.755Z,99.90
2023-03-03T21:35:24.816Z,99.90
2023-03-03T21:39:32.613Z,99.90
2023-03-03T21:43:37.429Z,99.90
2023-03-03T21:47:39.436Z,99.90
2023-03-03T21:51:42.654Z,99.90
2023-03-03T21:55:48.873Z,99.90
2023-03-03T21:59:49.583Z,99.90
2023-03-03T22:03:50.795Z,99.90
2023-03-03T22:07:54.161Z,99.90
2023-03-03T22:11:54.906Z,99.90
2023-03-03T22:15:56.565Z,99.90
2023-03-03T22:19:56.934Z,99.90
2023-03-03T22:24:00.861Z,99.90
2023-03-03T22:28:02.158Z,99.90
2023-03-03T22:32:03.059Z,99.90
2023-03-03T22:36:04.090Z,99.90
2023-03-03T22:40:08.468Z,99.90
2023-03-03T22:44:09.826Z,99.90
2023-03-03T22:48:10.750Z,99.90
2023-03-03T22:52:12.182Z,99.90
2023-03-03T22:56:15.127Z,99.90
2023-03-03T23:00:19.384Z,99.90
2023-03-03T23:04:20.078Z,99.90
2023-03-03T23:08:21.854Z,99.90
2023-03-03T23:12:25.176Z,99.90
2023-03-03T23:16:25.628Z,99.90
2023-03-03T23:20:30.840Z,99.90
2023-03-03T23:24:33.223Z,99.90
2023-03-03T23:28:36.646Z,99.90
2023-03-03T23:32:38.202Z,99.90
2023-03-03T23:36:38.771Z,99.90
2023-03-03T23:40:39.129Z,99.90
2023-03-03T23:44:43.557Z,99.90
2023-03-03T23:48:44.317Z,99.90
2023-03-03T23:52:44.871Z,99.90
2023-03-03T23:56:45.355Z,99.90
